createdAt,value
2018-09-21T00:02:11.077Z,16.70
2018-09-21T00:04:39.292Z,16.60
2018-09-21T00:07:07.519Z,16.60
2018-09-21T00:09:35.724Z,16.60
2018-09-21T00:12:23.869Z,16.70
2018-09-21T00:14:52.771Z,16.60
2018-09-21T00:17:21.020Z,16.60
2018-09-21T00:19:49.236Z,16.60
2018-09-21T00:22:17.467Z,16.60
2018-09-21T00:24:45.692Z,16.60
2018-09-21T00:27:13.940Z,16.60
2018-09-21T00:29:42.175Z,16.60
2018-09-21T00:32:10.624Z,16.60
2018-09-21T00:34:38.879Z,16.60
2018-09-21T00:37:07.181Z,16.60
2018-09-21T00:39:35.440Z,16.60
2018-09-21T00:42:03.702Z,16.60
2018-09-21T00:44:32.043Z,16.60
2018-09-21T00:47:00.381Z,16.60
2018-09-21T00:49:28.595Z,16.60
2018-09-21T00:51:56.816Z,16.60
2018-09-21T00:54:25.060Z,16.60
2018-09-21T00:56:53.620Z,16.50
2018-09-21T00:59:21.848Z,16.50
2018-09-21T01:01:50.070Z,16.50
2018-09-21T01:04:18.299Z,16.50
2018-09-21T01:06:46.537Z,16.40
2018-09-21T01:09:14.747Z,16.40
2018-09-21T01:11:42.996Z,16.40
2018-09-21T01:14:11.219Z,16.40
2018-09-21T01:16:39.474Z,16.40
2018-09-21T01:19:07.668Z,16.40
2018-09-21T01:21:35.895Z,16.40
2018-09-21T01:24:04.106Z,16.40
2018-09-21T01:26:32.295Z,16.40
2018-09-21T01:29:01.812Z,16.30
2018-09-21T01:31:30.051Z,16.30
2018-09-21T01:33:58.313Z,16.30
2018-09-21T01:36:27.176Z,16.30
2018-09-21T01:38:55.551Z,16.30
2018-09-21T01:41:23.776Z,16.30
2018-09-21T01:43:51.978Z,16.30
2018-09-21T01:46:20.229Z,16.40
2018-09-21T01:48:48.429Z,16.40
2018-09-21T01:51:16.652Z,16.40
2018-09-21T01:53:44.856Z,16.40
2018-09-21T01:56:13.053Z,16.40
2018-09-21T01:58:41.264Z,16.40
2018-09-21T02:01:09.472Z,16.40
2018-09-21T02:03:37.669Z,16.30
2018-09-21T02:06:05.899Z,16.30
2018-09-21T02:08:34.108Z,16.30
2018-09-21T02:11:02.347Z,16.30
2018-09-21T02:13:30.570Z,16.30
2018-09-21T02:15:58.833Z,16.30
2018-09-21T02:18:27.072Z,16.30
2018-09-21T02:20:55.657Z,16.30
2018-09-21T02:23:24.089Z,16.30
2018-09-21T02:25:52.312Z,16.30
2018-09-21T02:28:20.577Z,16.30
2018-09-21T02:30:48.867Z,16.30
2018-09-21T02:33:17.104Z,16.30
2018-09-21T02:35:45.324Z,16.30
2018-09-21T02:38:13.529Z,16.30
2018-09-21T02:40:41.764Z,16.30
2018-09-21T02:43:10.032Z,16.30
2018-09-21T02:45:38.360Z,16.30
2018-09-21T02:48:06.825Z,16.40
2018-09-21T02:50:35.059Z,16.40
2018-09-21T02:53:03.292Z,16.40
2018-09-21T02:55:31.525Z,16.40
2018-09-21T02:57:59.788Z,16.40
2018-09-21T03:00:28.047Z,16.40
2018-09-21T03:02:56.548Z,16.40
2018-09-21T03:05:24.779Z,16.50
2018-09-21T03:07:53.020Z,16.50
2018-09-21T03:10:21.311Z,16.60
2018-09-21T03:12:49.550Z,16.60
2018-09-21T03:15:17.776Z,16.60
2018-09-21T03:17:46.016Z,16.70
2018-09-21T03:20:14.254Z,16.80
2018-09-21T03:22:42.442Z,16.80
2018-09-21T03:25:10.669Z,16.90
2018-09-21T03:27:38.847Z,17.00
2018-09-21T03:30:07.068Z,17.10
2018-09-21T03:32:35.303Z,17.20
2018-09-21T03:35:05.344Z,17.20
2018-09-21T03:37:33.523Z,17.20
2018-09-21T03:40:01.761Z,17.10
2018-09-21T03:42:30.018Z,17.10
2018-09-21T03:44:58.379Z,17.00
2018-09-21T03:47:26.622Z,17.00
2018-09-21T03:49:54.821Z,16.90
2018-09-21T03:52:23.082Z,16.90
2018-09-21T03:54:51.321Z,16.90
2018-09-21T03:57:19.589Z,16.90
2018-09-21T03:59:47.859Z,16.80
2018-09-21T04:02:16.086Z,16.80
2018-09-21T04:04:44.281Z,16.80
2018-09-21T04:07:12.605Z,16.80
2018-09-21T04:09:40.821Z,16.80
2018-09-21T04:12:09.016Z,16.80
2018-09-21T04:14:37.301Z,16.80
2018-09-21T04:17:05.671Z,16.90
2018-09-21T04:19:34.049Z,17.00
2018-09-21T04:22:02.261Z,17.10
2018-09-21T04:24:30.525Z,17.10
2018-09-21T04:27:05.205Z,17.20
2018-09-21T04:29:33.435Z,17.30
2018-09-21T04:32:01.664Z,17.40
2018-09-21T04:34:29.878Z,17.40
2018-09-21T04:36:58.203Z,17.50
2018-09-21T04:39:26.422Z,17.50
2018-09-21T04:41:54.658Z,17.50
2018-09-21T04:44:23.429Z,17.50
2018-09-21T04:46:51.648Z,17.40
2018-09-21T04:49:19.868Z,17.40
2018-09-21T04:51:48.086Z,17.40
2018-09-21T04:54:16.289Z,17.30
2018-09-21T04:56:44.531Z,17.30
2018-09-21T04:59:12.729Z,17.30
2018-09-21T05:01:41.284Z,17.20
2018-09-21T05:04:09.476Z,17.10
2018-09-21T05:06:37.714Z,17.00
2018-09-21T05:09:08.166Z,17.00
2018-09-21T05:11:36.366Z,16.90
2018-09-21T05:14:04.762Z,16.90
2018-09-21T05:16:32.972Z,16.90
2018-09-21T05:19:01.317Z,16.80
2018-09-21T05:21:29.601Z,16.80
2018-09-21T05:23:57.881Z,16.70
2018-09-21T05:26:26.153Z,16.70
2018-09-21T05:28:54.373Z,16.70
2018-09-21T05:31:22.601Z,16.80
2018-09-21T05:33:50.820Z,16.90
2018-09-21T05:36:19.037Z,17.00
2018-09-21T05:38:47.272Z,17.00
2018-09-21T05:41:15.512Z,17.00
2018-09-21T05:43:43.735Z,17.10
2018-09-21T05:46:11.970Z,17.10
2018-09-21T05:48:40.195Z,17.10
2018-09-21T05:51:08.482Z,17.10
2018-09-21T05:53:36.704Z,17.10
2018-09-21T05:56:04.986Z,17.10
2018-09-21T05:58:34.299Z,17.10
2018-09-21T06:01:02.634Z,17.10
2018-09-21T06:03:30.929Z,17.10
2018-09-21T06:05:59.232Z,17.10
2018-09-21T06:08:27.434Z,17.10
2018-09-21T06:10:55.648Z,17.10
2018-09-21T06:13:23.844Z,17.20
2018-09-21T06:15:52.071Z,17.30
2018-09-21T06:18:20.298Z,17.40
2018-09-21T06:20:48.549Z,17.40
2018-09-21T06:23:16.766Z,17.50
2018-09-21T06:25:45.005Z,17.60
2018-09-21T06:28:13.226Z,17.70
2018-09-21T06:30:41.458Z,17.80
2018-09-21T06:33:09.661Z,17.80
2018-09-21T06:35:37.922Z,17.90
2018-09-21T06:38:06.387Z,18.00
2018-09-21T06:40:34.589Z,18.00
2018-09-21T06:43:03.054Z,18.10
2018-09-21T06:45:31.305Z,18.20
2018-09-21T06:47:59.537Z,18.20
2018-09-21T06:50:27.769Z,18.30
2018-09-21T06:52:56.016Z,18.40
2018-09-21T06:55:24.271Z,18.40
2018-09-21T06:57:52.517Z,18.40
2018-09-21T07:00:20.761Z,18.50
2018-09-21T07:02:49.025Z,18.60
2018-09-21T07:05:18.052Z,18.60
2018-09-21T07:07:46.402Z,18.70
2018-09-21T07:10:14.945Z,18.80
2018-09-21T07:12:43.730Z,18.80
2018-09-21T07:15:12.038Z,18.90
2018-09-21T07:17:40.897Z,19.00
2018-09-21T07:20:09.137Z,19.00
2018-09-21T07:22:38.849Z,19.10
2018-09-21T07:25:07.110Z,19.20
2018-09-21T07:27:35.447Z,19.30
2018-09-21T07:30:03.721Z,19.30
2018-09-21T07:32:31.971Z,19.40
2018-09-21T07:35:00.196Z,19.50
2018-09-21T07:37:28.452Z,19.60
2018-09-21T07:39:56.672Z,19.70
2018-09-21T07:42:24.927Z,19.70
2018-09-21T07:44:53.401Z,19.80
2018-09-21T07:47:21.639Z,19.90
2018-09-21T07:49:49.873Z,20.00
2018-09-21T07:52:18.117Z,20.10
2018-09-21T07:54:46.357Z,20.20
2018-09-21T07:57:14.607Z,20.30
2018-09-21T07:59:42.861Z,20.40
2018-09-21T08:02:11.511Z,20.50
2018-09-21T08:04:39.798Z,20.50
2018-09-21T08:07:08.273Z,20.50
2018-09-21T08:09:36.572Z,20.50
2018-09-21T08:12:04.812Z,20.50
2018-09-21T08:14:33.087Z,20.50
2018-09-21T08:17:01.333Z,20.50
2018-09-21T08:19:29.612Z,20.50
2018-09-21T08:21:57.852Z,20.50
2018-09-21T08:24:26.085Z,20.50
2018-09-21T08:26:54.349Z,20.40
2018-09-21T08:29:22.598Z,20.40
2018-09-21T08:31:50.838Z,20.50
2018-09-21T08:34:19.103Z,20.50
2018-09-21T08:36:47.337Z,20.60
2018-09-21T08:39:15.575Z,20.60
2018-09-21T08:41:43.845Z,20.70
2018-09-21T08:44:12.098Z,20.70
2018-09-21T08:46:40.337Z,20.80
2018-09-21T08:49:08.569Z,20.80
2018-09-21T08:51:36.817Z,20.90
2018-09-21T08:54:05.097Z,20.90
2018-09-21T08:56:33.338Z,20.90
2018-09-21T08:59:01.546Z,20.90
2018-09-21T09:01:29.818Z,21.00
2018-09-21T09:03:58.054Z,21.00
2018-09-21T09:06:26.292Z,21.10
2018-09-21T09:08:54.538Z,21.20
2018-09-21T09:11:22.752Z,21.30
2018-09-21T09:13:51.022Z,21.40
2018-09-21T09:16:19.277Z,21.40
2018-09-21T09:18:47.516Z,21.40
2018-09-21T09:21:15.731Z,21.40
2018-09-21T09:23:44.006Z,21.50
2018-09-21T09:26:12.277Z,21.50
2018-09-21T09:28:40.558Z,21.60
2018-09-21T09:31:08.833Z,21.60
2018-09-21T09:33:37.156Z,21.70
2018-09-21T09:36:05.413Z,21.80
2018-09-21T09:38:33.649Z,21.90
2018-09-21T09:41:01.936Z,21.90
2018-09-21T09:43:30.185Z,21.90
2018-09-21T09:45:58.653Z,21.90
2018-09-21T09:48:27.122Z,21.90
2018-09-21T09:50:55.301Z,21.90
2018-09-21T09:53:23.604Z,22.00
2018-09-21T09:55:51.824Z,22.00
2018-09-21T09:58:20.077Z,22.10
2018-09-21T10:00:51.423Z,22.20
2018-09-21T10:03:20.329Z,22.30
2018-09-21T10:05:48.561Z,22.30
2018-09-21T10:08:16.793Z,22.30
2018-09-21T10:10:45.029Z,22.40
2018-09-21T10:13:13.233Z,22.60
2018-09-21T10:15:41.503Z,22.80
2018-09-21T10:18:09.726Z,22.90
2018-09-21T10:20:37.982Z,23.00
2018-09-21T10:23:06.189Z,23.20
2018-09-21T10:25:34.412Z,23.20
2018-09-21T10:28:03.081Z,23.20
2018-09-21T10:30:31.201Z,23.20
2018-09-21T10:32:59.446Z,23.20
2018-09-21T10:35:27.744Z,23.20
2018-09-21T10:37:55.876Z,23.10
2018-09-21T10:40:24.604Z,23.10
2018-09-21T10:42:52.867Z,23.10
2018-09-21T10:45:21.101Z,23.00
2018-09-21T10:47:49.422Z,22.90
2018-09-21T10:50:17.641Z,22.90
2018-09-21T10:52:45.900Z,22.80
2018-09-21T10:55:14.149Z,22.70
2018-09-21T10:57:42.416Z,22.80
2018-09-21T11:00:11.260Z,22.80
2018-09-21T11:02:39.631Z,22.70
2018-09-21T11:05:07.919Z,22.70
2018-09-21T11:07:36.158Z,22.80
2018-09-21T11:10:04.430Z,22.80
2018-09-21T11:12:32.685Z,22.80
2018-09-21T11:15:00.952Z,22.80
2018-09-21T11:17:29.192Z,22.90
2018-09-21T11:19:57.596Z,22.90
2018-09-21T11:22:25.936Z,22.90
2018-09-21T11:24:54.176Z,22.90
2018-09-21T11:27:22.430Z,22.90
2018-09-21T11:29:50.685Z,22.90
2018-09-21T11:32:19.000Z,22.90
2018-09-21T11:34:47.341Z,23.00
2018-09-21T11:37:15.598Z,23.00
2018-09-21T11:39:43.830Z,23.10
2018-09-21T11:42:12.099Z,23.00
2018-09-21T11:44:40.623Z,23.00
2018-09-21T11:47:12.041Z,22.90
2018-09-21T11:49:41.707Z,22.90
2018-09-21T11:52:10.569Z,22.80
2018-09-21T11:54:40.095Z,22.80
2018-09-21T11:57:08.406Z,22.80
2018-09-21T11:59:36.656Z,22.80
2018-09-21T12:02:04.934Z,22.90
2018-09-21T12:04:33.160Z,22.90
2018-09-21T12:07:01.408Z,22.90
2018-09-21T12:09:31.273Z,23.00
2018-09-21T12:11:59.564Z,23.10
2018-09-21T12:14:28.944Z,23.10
2018-09-21T12:16:57.257Z,23.10
2018-09-21T12:19:25.478Z,23.20
2018-09-21T12:21:53.697Z,23.20
2018-09-21T12:24:23.828Z,23.20
2018-09-21T12:26:52.126Z,23.20
2018-09-21T12:29:20.368Z,23.10
2018-09-21T12:31:48.716Z,23.10
2018-09-21T12:34:16.898Z,23.00
2018-09-21T12:36:46.667Z,22.90
2018-09-21T12:39:15.182Z,22.90
2018-09-21T12:41:44.958Z,22.80
2018-09-21T12:44:14.683Z,22.80
2018-09-21T12:46:43.946Z,22.70
2018-09-21T12:49:14.589Z,22.60
2018-09-21T12:51:43.022Z,22.50
2018-09-21T12:54:11.513Z,22.50
2018-09-21T12:56:39.825Z,22.50
2018-09-21T12:59:09.230Z,22.50
2018-09-21T13:01:38.865Z,22.40
2018-09-21T13:04:07.231Z,22.40
2018-09-21T13:06:35.485Z,22.40
2018-09-21T13:09:05.035Z,22.40
2018-09-21T13:11:33.330Z,22.30
2018-09-21T13:14:03.179Z,22.30
2018-09-21T13:16:31.445Z,22.30
2018-09-21T13:18:59.694Z,22.20
2018-09-21T13:21:28.118Z,22.20
2018-09-21T13:23:56.394Z,22.20
2018-09-21T13:26:24.659Z,22.10
2018-09-21T13:28:52.929Z,22.10
2018-09-21T13:31:21.225Z,22.10
2018-09-21T13:33:49.488Z,22.10
2018-09-21T13:36:17.757Z,22.00
2018-09-21T13:38:46.035Z,22.00
2018-09-21T13:41:14.639Z,22.00
2018-09-21T13:43:42.893Z,22.00
2018-09-21T13:46:11.135Z,21.90
2018-09-21T13:48:39.357Z,21.90
2018-09-21T13:51:07.609Z,21.90
2018-09-21T13:53:36.036Z,21.90
2018-09-21T13:56:04.314Z,21.90
2018-09-21T13:58:32.537Z,22.00
2018-09-21T14:01:00.742Z,22.00
2018-09-21T14:03:28.972Z,22.00
2018-09-21T14:06:01.494Z,22.00
2018-09-21T14:08:29.726Z,22.00
2018-09-21T14:10:57.968Z,22.00
2018-09-21T14:13:26.189Z,21.90
2018-09-21T14:15:54.435Z,21.90
2018-09-21T14:18:22.697Z,21.80
2018-09-21T14:20:50.921Z,21.80
2018-09-21T14:23:19.169Z,21.70
2018-09-21T14:25:47.418Z,21.70
2018-09-21T14:28:15.633Z,21.70
2018-09-21T14:30:43.981Z,21.70
2018-09-21T14:33:12.295Z,21.60
2018-09-21T14:35:40.637Z,21.70
2018-09-21T14:38:08.842Z,21.70
2018-09-21T14:40:37.080Z,21.70
2018-09-21T14:43:05.455Z,21.70
2018-09-21T14:45:33.639Z,21.70
2018-09-21T14:48:04.101Z,21.70
2018-09-21T14:50:32.477Z,21.70
2018-09-21T14:53:00.702Z,21.70
2018-09-21T14:55:28.941Z,21.70
2018-09-21T14:57:57.182Z,21.60
2018-09-21T15:00:25.412Z,21.60
2018-09-21T15:02:53.761Z,21.60
2018-09-21T15:05:22.025Z,21.50
2018-09-21T15:07:50.553Z,21.50
2018-09-21T15:10:18.799Z,21.50
2018-09-21T15:12:47.046Z,21.50
2018-09-21T15:15:15.393Z,21.50
2018-09-21T15:17:43.607Z,21.50
2018-09-21T15:20:11.873Z,21.40
2018-09-21T15:22:40.211Z,21.40
2018-09-21T15:25:08.444Z,21.40
2018-09-21T15:27:36.672Z,21.30
2018-09-21T15:30:05.298Z,21.40
2018-09-21T15:32:33.588Z,21.30
2018-09-21T15:35:01.817Z,21.30
2018-09-21T15:37:30.016Z,21.20
2018-09-21T15:39:58.280Z,21.20
2018-09-21T15:42:26.486Z,21.20
2018-09-21T15:44:54.761Z,21.10
2018-09-21T15:47:22.971Z,21.10
2018-09-21T15:49:51.207Z,21.10
2018-09-21T15:52:19.429Z,21.00
2018-09-21T15:54:47.625Z,21.00
2018-09-21T15:57:15.888Z,21.00
2018-09-21T15:59:45.500Z,21.00
2018-09-21T16:02:16.459Z,21.00
2018-09-21T16:04:45.826Z,21.00
2018-09-21T16:07:15.636Z,21.00
2018-09-21T16:09:45.590Z,20.90
2018-09-21T16:12:15.380Z,21.00
2018-09-21T16:14:45.170Z,20.90
2018-09-21T16:17:13.625Z,20.90
2018-09-21T16:19:43.793Z,20.90
2018-09-21T16:22:13.843Z,20.70
2018-09-21T16:24:43.262Z,20.60
2018-09-21T16:27:13.527Z,20.40
2018-09-21T16:29:44.230Z,20.20
2018-09-21T16:32:13.833Z,20.00
2018-09-21T16:34:43.348Z,19.80
2018-09-21T16:37:13.502Z,19.50
2018-09-21T16:39:43.143Z,19.30
2018-09-21T16:42:12.395Z,19.00
2018-09-21T16:44:42.396Z,18.80
2018-09-21T16:47:12.704Z,18.60
2018-09-21T16:49:42.007Z,18.50
2018-09-21T16:52:12.120Z,18.30
2018-09-21T16:54:42.683Z,18.30
2018-09-21T16:57:11.661Z,18.20
2018-09-21T16:59:43.463Z,18.10
2018-09-21T17:02:13.256Z,18.00
2018-09-21T17:04:42.884Z,17.90
2018-09-21T17:07:16.967Z,17.90
2018-09-21T17:09:48.021Z,17.80
2018-09-21T17:12:18.822Z,17.70
2018-09-21T17:14:48.762Z,17.60
2018-09-21T17:17:17.974Z,17.50
2018-09-21T17:19:48.241Z,17.40
2018-09-21T17:22:18.086Z,17.40
2018-09-21T17:24:51.329Z,17.30
2018-09-21T17:27:19.920Z,17.20
2018-09-21T17:29:48.146Z,17.20
2018-09-21T17:32:16.360Z,17.10
2018-09-21T17:34:44.559Z,17.00
2018-09-21T17:37:12.770Z,16.90
2018-09-21T17:39:40.976Z,16.80
2018-09-21T17:42:09.988Z,16.70
2018-09-21T17:44:38.317Z,16.70
2018-09-21T17:47:06.557Z,16.60
2018-09-21T17:49:34.739Z,16.50
2018-09-21T17:52:02.961Z,16.40
2018-09-21T17:54:31.153Z,16.40
2018-09-21T17:56:59.511Z,16.40
2018-09-21T17:59:27.627Z,16.30
2018-09-21T18:01:55.865Z,16.30
2018-09-21T18:04:24.169Z,16.20
2018-09-21T18:06:52.468Z,16.10
2018-09-21T18:09:20.807Z,16.10
2018-09-21T18:11:49.106Z,16.00
2018-09-21T18:14:17.311Z,16.00
2018-09-21T18:16:45.613Z,16.00
2018-09-21T18:19:13.853Z,15.90
2018-09-21T18:21:42.044Z,15.90
2018-09-21T18:24:10.324Z,15.80
2018-09-21T18:26:38.633Z,15.80
2018-09-21T18:29:07.049Z,15.70
2018-09-21T18:31:35.326Z,15.70
2018-09-21T18:34:03.584Z,15.60
2018-09-21T18:36:31.819Z,15.60
2018-09-21T18:39:01.074Z,15.60
2018-09-21T18:41:29.310Z,15.60
2018-09-21T18:43:57.535Z,15.50
2018-09-21T18:46:25.772Z,15.50
2018-09-21T18:48:54.161Z,15.40
2018-09-21T18:51:22.756Z,15.40
2018-09-21T18:53:51.095Z,15.40
2018-09-21T18:56:19.349Z,15.40
2018-09-21T18:58:47.670Z,15.30
2018-09-21T19:01:15.927Z,15.30
2018-09-21T19:03:44.208Z,15.20
2018-09-21T19:06:12.419Z,15.20
2018-09-21T19:08:40.667Z,15.20
2018-09-21T19:11:08.920Z,15.10
2018-09-21T19:13:37.135Z,15.10
2018-09-21T19:16:05.361Z,15.00
2018-09-21T19:18:33.580Z,15.00
2018-09-21T19:21:02.945Z,14.90
2018-09-21T19:23:31.279Z,14.80
2018-09-21T19:25:59.469Z,14.70
2018-09-21T19:28:27.832Z,14.70
2018-09-21T19:30:56.779Z,14.60
2018-09-21T19:33:25.125Z,14.60
2018-09-21T19:35:53.344Z,14.50
2018-09-21T19:38:21.669Z,14.50
2018-09-21T19:40:49.905Z,14.50
2018-09-21T19:43:18.206Z,14.40
2018-09-21T19:45:46.656Z,14.40
2018-09-21T19:48:14.844Z,14.40
2018-09-21T19:50:43.338Z,14.30
2018-09-21T19:53:11.730Z,14.30
2018-09-21T19:55:40.035Z,14.30
2018-09-21T19:58:09.617Z,14.30
2018-09-21T20:00:37.829Z,14.20
2018-09-21T20:03:06.129Z,14.20
2018-09-21T20:05:34.458Z,14.20
2018-09-21T20:08:02.870Z,14.20
2018-09-21T20:10:31.305Z,14.20
2018-09-21T20:12:59.670Z,14.10
2018-09-21T20:15:28.227Z,14.10
2018-09-21T20:17:56.576Z,14.10
2018-09-21T20:20:24.938Z,14.00
2018-09-21T20:22:53.329Z,14.00
2018-09-21T20:25:22.742Z,13.90
2018-09-21T20:27:50.935Z,13.90
2018-09-21T20:30:24.581Z,13.90
2018-09-21T20:32:58.466Z,13.90
2018-09-21T20:35:26.809Z,13.90
2018-09-21T20:37:55.026Z,13.90
2018-09-21T20:40:23.255Z,13.90
2018-09-21T20:42:51.568Z,13.90
2018-09-21T20:45:19.823Z,13.80
2018-09-21T20:47:48.051Z,13.90
2018-09-21T20:50:16.285Z,13.90
2018-09-21T20:52:44.580Z,13.90
2018-09-21T20:55:12.952Z,13.80
2018-09-21T20:57:41.214Z,13.80
2018-09-21T21:00:09.487Z,13.80
2018-09-21T21:02:37.880Z,13.80
2018-09-21T21:05:06.758Z,13.80
2018-09-21T21:07:35.280Z,13.80
2018-09-21T21:10:03.515Z,13.80
2018-09-21T21:12:31.732Z,13.80
2018-09-21T21:15:00.010Z,13.80
2018-09-21T21:17:28.499Z,13.80
2018-09-21T21:19:56.837Z,13.70
2018-09-21T21:22:25.124Z,13.70
2018-09-21T21:24:53.297Z,13.70
2018-09-21T21:27:21.549Z,13.70
2018-09-21T21:29:49.783Z,13.60
2018-09-21T21:32:18.106Z,13.60
2018-09-21T21:34:46.301Z,13.60
2018-09-21T21:37:14.790Z,13.60
2018-09-21T21:39:43.002Z,13.60
2018-09-21T21:42:11.263Z,13.60
2018-09-21T21:44:39.542Z,13.60
2018-09-21T21:47:07.772Z,13.50
2018-09-21T21:49:36.366Z,13.50
2018-09-21T21:52:04.765Z,13.50
2018-09-21T21:54:33.727Z,13.50
2018-09-21T21:57:08.403Z,13.50
2018-09-21T21:59:36.663Z,13.50
2018-09-21T22:02:07.201Z,13.40
2018-09-21T22:04:41.232Z,13.40
2018-09-21T22:07:10.985Z,13.40
2018-09-21T22:09:40.076Z,13.40
2018-09-21T22:12:13.837Z,13.40
2018-09-21T22:14:42.093Z,13.50
2018-09-21T22:17:10.337Z,13.50
2018-09-21T22:19:38.572Z,13.50
2018-09-21T22:22:07.073Z,13.50
2018-09-21T22:24:35.342Z,13.50
2018-09-21T22:27:03.642Z,13.50
2018-09-21T22:29:31.889Z,13.60
2018-09-21T22:32:00.390Z,13.60
2018-09-21T22:34:28.714Z,13.60
2018-09-21T22:36:56.950Z,13.60
2018-09-21T22:39:25.169Z,13.60
2018-09-21T22:41:53.465Z,13.60
2018-09-21T22:44:21.677Z,13.60
2018-09-21T22:46:51.028Z,13.60
2018-09-21T22:49:21.155Z,13.70
2018-09-21T22:51:49.382Z,13.70
2018-09-21T22:54:17.637Z,13.60
2018-09-21T22:56:45.859Z,13.60
2018-09-21T22:59:14.107Z,13.60
2018-09-21T23:01:42.344Z,13.60
2018-09-21T23:04:10.564Z,13.60
2018-09-21T23:06:38.847Z,13.60
2018-09-21T23:09:09.636Z,13.60
2018-09-21T23:11:37.904Z,13.60
2018-09-21T23:14:06.128Z,13.60
2018-09-21T23:16:34.341Z,13.60
2018-09-21T23:19:02.707Z,13.60
2018-09-21T23:21:30.950Z,13.60
2018-09-21T23:23:59.567Z,13.50
2018-09-21T23:26:28.897Z,13.50
2018-09-21T23:28:57.204Z,13.50
2018-09-21T23:31:25.688Z,13.50
2018-09-21T23:33:53.933Z,13.50
2018-09-21T23:36:22.609Z,13.50
2018-09-21T23:38:51.132Z,13.50
2018-09-21T23:41:19.382Z,13.50
2018-09-21T23:43:47.633Z,13.50
2018-09-21T23:46:15.857Z,13.50
2018-09-21T23:48:45.115Z,13.50
2018-09-21T23:51:13.372Z,13.50
2018-09-21T23:53:41.615Z,13.50
2018-09-21T23:56:09.835Z,13.40
2018-09-21T23:58:38.487Z,13.40
